Time;durP1;ratioP1;P1;durP2;ratioP2;P2;SDS_P1;SDS_P2;PMS_P1;PMS_P2;Temp;Humidity;BMP_temperature;BMP_pressure;BME280_temperature;BME280_humidity;BME280_pressure;Samples;Min_cycle;Max_cycle;Signal;HPM_P1;HPM_P2
2023/11/21 00:01:03;;;;;;;37.03;12.45;;;;;;;4.18;100.00;97226.03;5011097;28;20029;-77
2023/11/21 00:03:30;;;;;;;25.35;12.38;;;;;;;4.27;100.00;97229.16;5011204;28;20040;-77
2023/11/21 00:05:56;;;;;;;24.73;12.02;;;;;;;4.30;100.00;97233.44;5010868;28;20030;-77
2023/11/21 00:08:21;;;;;;;31.05;12.82;;;;;;;4.34;100.00;97242.97;4994609;28;20124;-77
2023/11/21 00:10:47;;;;;;;30.77;13.90;;;;;;;4.40;100.00;97242.69;5010784;28;20041;-76
2023/11/21 00:13:13;;;;;;;48.30;19.85;;;;;;;4.41;100.00;97247.09;5010723;28;20099;-76
2023/11/21 00:15:38;;;;;;;35.42;17.58;;;;;;;4.34;100.00;97233.25;5009967;28;20568;-77
2023/11/21 00:18:05;;;;;;;33.03;15.75;;;;;;;4.26;100.00;97232.72;5010413;28;20129;-76
2023/11/21 00:20:30;;;;;;;44.45;18.40;;;;;;;4.28;100.00;97233.50;5010898;28;20037;-76
2023/11/21 00:22:56;;;;;;;38.88;16.15;;;;;;;4.19;100.00;97240.97;5010485;28;20029;-76
2023/11/21 00:25:22;;;;;;;42.05;17.23;;;;;;;4.20;100.00;97245.34;4994097;28;20037;-76
2023/11/21 00:27:47;;;;;;;51.05;18.83;;;;;;;4.25;100.00;97246.00;4994438;28;20041;-76
2023/11/21 00:30:13;;;;;;;37.72;17.20;;;;;;;4.24;100.00;97241.66;4994065;28;20255;-76
2023/11/21 00:32:39;;;;;;;38.78;16.05;;;;;;;4.13;100.00;97236.78;5010640;28;20041;-76
2023/11/21 00:35:05;;;;;;;43.85;18.05;;;;;;;4.16;100.00;97249.91;4994222;28;20497;-76
2023/11/21 00:37:32;;;;;;;40.60;18.27;;;;;;;4.23;100.00;97248.72;5010239;28;20486;-76
2023/11/21 00:39:57;;;;;;;40.25;17.98;;;;;;;4.22;100.00;97243.47;4993945;28;20512;-76
2023/11/21 00:42:23;;;;;;;47.38;17.92;;;;;;;4.18;100.00;97234.81;5010329;28;20042;-76
2023/11/21 00:44:49;;;;;;;35.22;15.25;;;;;;;4.12;100.00;97226.28;5010490;28;20040;-77
2023/11/21 00:47:14;;;;;;;25.42;12.10;;;;;;;3.99;100.00;97225.06;5010101;28;20129;-76
2023/11/21 00:49:40;;;;;;;26.98;11.55;;;;;;;4.05;100.00;97230.09;4993900;28;20029;-76
2023/11/21 00:52:06;;;;;;;21.60;11.27;;;;;;;4.10;100.00;97244.00;5010098;28;20505;-75
2023/11/21 00:54:32;;;;;;;26.90;10.00;;;;;;;4.05;100.00;97233.63;5010018;28;20034;-76
2023/11/21 00:56:58;;;;;;;28.20;13.40;;;;;;;4.06;100.00;97237.13;5010171;28;20413;-76
2023/11/21 00:59:24;;;;;;;40.45;18.48;;;;;;;4.07;100.00;97236.19;5010136;28;20092;-77
2023/11/21 01:01:49;;;;;;;27.05;13.52;;;;;;;4.04;100.00;97244.25;4993987;28;20029;-76
2023/11/21 01:04:15;;;;;;;29.13;11.43;;;;;;;3.96;100.00;97243.72;5009781;28;20061;-76
2023/11/21 01:06:41;;;;;;;23.45;12.20;;;;;;;3.82;100.00;97234.53;5010251;28;20452;-76
2023/11/21 01:09:08;;;;;;;28.83;13.73;;;;;;;3.91;100.00;97246.53;5009659;28;20026;-76
2023/11/21 01:11:37;;;;;;;26.85;12.68;;;;;;;3.78;100.00;97217.06;5009816;28;20022;-76
2023/11/21 01:14:03;;;;;;;28.95;13.30;;;;;;;3.83;100.00;97235.41;5009891;28;20485;-75
2023/11/21 01:16:29;;;;;;;35.72;17.42;;;;;;;3.74;100.00;97212.84;4993277;28;20125;-76
2023/11/21 01:18:54;;;;;;;42.95;17.13;;;;;;;3.78;100.00;97211.78;5009952;28;20109;-76
2023/11/21 01:21:20;;;;;;;47.65;20.92;;;;;;;3.76;100.00;97195.13;5009911;28;20067;-77
2023/11/21 01:23:47;;;;;;;44.13;20.92;;;;;;;3.91;100.00;97211.31;4993307;28;20033;-76
2023/11/21 01:26:13;;;;;;;52.25;22.65;;;;;;;4.07;100.00;97222.94;5008835;28;20042;-75
2023/11/21 01:28:38;;;;;;;43.03;20.40;;;;;;;4.03;100.00;97211.63;5009428;28;20032;-76
2023/11/21 01:31:04;;;;;;;45.80;19.15;;;;;;;4.10;100.00;97214.88;5009663;28;20044;-76
2023/11/21 01:33:30;;;;;;;47.78;21.02;;;;;;;4.06;100.00;97192.16;5009683;28;20029;-78
2023/11/21 01:35:56;;;;;;;44.53;20.77;;;;;;;4.02;100.00;97203.78;5009873;28;20104;-76
2023/11/21 01:38:22;;;;;;;45.03;20.17;;;;;;;4.10;100.00;97201.66;5009745;28;20033;-76
2023/11/21 01:40:47;;;;;;;43.83;20.13;;;;;;;4.17;100.00;97208.41;5009401;28;20033;-75
2023/11/21 01:43:13;;;;;;;53.92;21.90;;;;;;;4.17;100.00;97213.72;5009743;28;20030;-76
2023/11/21 01:45:39;;;;;;;46.97;20.65;;;;;;;4.19;100.00;97214.50;4993021;28;20034;-76
2023/11/21 01:48:06;;;;;;;51.10;21.55;;;;;;;4.23;100.00;97219.63;4993174;28;20037;-77
2023/11/21 01:50:33;;;;;;;53.58;24.73;;;;;;;4.19;100.00;97217.16;5010641;28;20104;-77
2023/11/21 01:53:00;;;;;;;49.85;22.55;;;;;;;4.07;100.00;97191.19;5009577;28;20112;-75
2023/11/21 01:55:27;;;;;;;47.22;22.17;;;;;;;4.14;100.00;97203.25;4993243;28;20045;-76
2023/11/21 01:57:52;;;;;;;47.30;21.23;;;;;;;4.18;100.00;97199.56;5009230;28;20035;-76
2023/11/21 02:00:19;;;;;;;43.90;21.20;;;;;;;4.12;100.00;97200.66;5009381;28;20034;-77
2023/11/21 02:02:48;;;;;;;43.67;19.85;;;;;;;4.13;100.00;97215.63;5009144;28;20482;-76
2023/11/21 02:05:18;;;;;;;46.95;21.48;;;;;;;4.13;100.00;97217.41;4992638;28;20034;-76
2023/11/21 02:07:44;;;;;;;48.80;20.08;;;;;;;4.05;100.00;97208.94;5010435;28;20022;-76
2023/11/21 02:10:14;;;;;;;38.10;18.17;;;;;;;3.99;100.00;97206.53;5011000;28;20026;-76
2023/11/21 02:12:40;;;;;;;36.83;17.95;;;;;;;3.96;100.00;97209.31;5006711;28;20513;-76
2023/11/21 02:15:14;;;;;;;36.25;18.00;;;;;;;3.93;100.00;97214.72;5009277;28;20101;-75
2023/11/21 02:17:51;;;;;;;40.03;17.73;;;;;;;3.86;100.00;97207.97;5007002;28;20026;-76
2023/11/21 02:20:17;;;;;;;36.17;16.90;;;;;;;3.79;100.00;97218.78;5003519;28;20030;-75
2023/11/21 02:22:44;;;;;;;32.05;14.73;;;;;;;3.66;100.00;97214.06;5009324;28;20153;-75
2023/11/21 02:25:09;;;;;;;31.98;14.18;;;;;;;3.67;100.00;97203.41;5009164;28;20034;-75
2023/11/21 02:27:36;;;;;;;32.47;14.85;;;;;;;3.67;100.00;97207.84;5009011;28;20398;-75
2023/11/21 02:30:04;;;;;;;29.55;13.45;;;;;;;3.52;100.00;97196.09;4991449;28;20033;-76
2023/11/21 02:32:31;;;;;;;28.25;13.70;;;;;;;3.58;100.00;97202.94;5009109;28;20026;-76
2023/11/21 02:35:00;;;;;;;29.00;13.35;;;;;;;3.63;100.00;97206.28;5010337;28;20030;-75
2023/11/21 02:37:26;;;;;;;25.35;11.52;;;;;;;3.58;100.00;97201.16;5009225;28;20588;-75
2023/11/21 02:39:52;;;;;;;26.73;11.95;;;;;;;3.50;100.00;97197.97;5011594;28;20112;-76
2023/11/21 02:42:18;;;;;;;28.20;12.52;;;;;;;3.46;100.00;97196.34;5012493;28;20065;-76
2023/11/21 02:44:44;;;;;;;25.48;12.77;;;;;;;3.49;100.00;97200.66;5012498;28;20092;-76
2023/11/21 02:47:09;;;;;;;31.05;13.27;;;;;;;3.43;100.00;97199.13;5012368;28;20029;-76
2023/11/21 02:49:35;;;;;;;28.05;11.98;;;;;;;3.43;100.00;97203.53;5012607;28;20480;-77
2023/11/21 02:52:01;;;;;;;28.90;12.60;;;;;;;3.37;100.00;97199.34;4995906;28;20041;-75
2023/11/21 02:54:27;;;;;;;24.40;11.27;;;;;;;3.46;100.00;97204.28;5012600;28;20037;-75
2023/11/21 02:56:52;;;;;;;22.25;10.68;;;;;;;3.38;100.00;97201.09;5011897;28;20100;-76
2023/11/21 02:59:19;;;;;;;22.30;9.90;;;;;;;3.29;100.00;97191.72;5012236;28;20101;-76
2023/11/21 03:01:46;;;;;;;27.83;11.18;;;;;;;3.39;100.00;97201.94;5012163;28;20044;-76
2023/11/21 03:04:17;;;;;;;17.73;8.98;;;;;;;3.38;100.00;97195.81;5012122;28;20164;-76
2023/11/21 03:06:43;;;;;;;18.30;8.63;;;;;;;3.44;100.00;97206.13;5012282;28;20076;-76
2023/11/21 03:09:08;;;;;;;24.00;9.95;;;;;;;3.47;100.00;97205.16;5011968;28;20658;-77
2023/11/21 03:11:34;;;;;;;20.90;10.45;;;;;;;3.39;100.00;97196.63;5012170;28;20037;-76
2023/11/21 03:14:00;;;;;;;25.75;11.55;;;;;;;3.45;100.00;97199.03;5013231;28;20161;-76
2023/11/21 03:16:25;;;;;;;23.88;10.93;;;;;;;3.37;100.00;97196.72;4995505;28;20037;-75
2023/11/21 03:18:52;;;;;;;30.48;13.80;;;;;;;3.28;100.00;97187.38;5012028;28;20038;-76
2023/11/21 03:21:17;;;;;;;38.10;15.82;;;;;;;3.29;100.00;97190.88;5011963;28;20124;-76
2023/11/21 03:23:43;;;;;;;37.63;14.50;;;;;;;3.31;100.00;97193.44;5011961;28;20073;-76
2023/11/21 03:26:12;;;;;;;34.00;13.75;;;;;;;3.24;100.00;97177.84;5011434;28;20050;-76
2023/11/21 03:28:38;;;;;;;36.75;14.02;;;;;;;3.36;100.00;97196.75;5012191;28;20088;-76
2023/11/21 03:31:04;;;;;;;33.38;13.48;;;;;;;3.32;100.00;97190.75;5011557;28;20026;-77
2023/11/21 03:33:29;;;;;;;113.57;47.05;;;;;;;3.32;100.00;97188.13;5011837;28;20053;-75
2023/11/21 03:35:55;;;;;;;30.90;14.35;;;;;;;3.35;100.00;97198.56;4995226;28;20032;-77
2023/11/21 03:38:20;;;;;;;38.85;16.58;;;;;;;3.37;100.00;97198.50;5011371;28;20088;-76
2023/11/21 03:40:47;;;;;;;34.10;15.75;;;;;;;3.35;100.00;97205.63;5012839;28;20018;-77
2023/11/21 03:43:13;;;;;;;32.67;16.13;;;;;;;3.36;100.00;97213.50;4994791;28;20091;-77
2023/11/21 03:45:40;;;;;;;34.45;16.40;;;;;;;3.29;100.00;97201.44;5011663;28;20548;-76
2023/11/21 03:48:06;;;;;;;36.95;17.65;;;;;;;3.42;100.00;97202.66;5011098;28;20026;-77
2023/11/21 03:50:32;;;;;;;26.80;13.75;;;;;;;3.28;100.00;97179.44;5011185;28;20559;-77
2023/11/21 03:52:57;;;;;;;35.97;14.70;;;;;;;3.23;100.00;97186.66;5012367;28;20022;-77
2023/11/21 03:55:24;;;;;;;35.15;16.05;;;;;;;3.21;100.00;97185.88;5012171;28;20038;-76
2023/11/21 03:57:51;;;;;;;41.15;16.88;;;;;;;3.16;100.00;97192.28;5010901;28;20181;-77
2023/11/21 04:00:17;;;;;;;40.80;17.90;;;;;;;3.24;100.00;97200.75;5012327;28;20505;-77
2023/11/21 04:02:43;;;;;;;41.83;18.98;;;;;;;3.30;100.00;97197.88;4994933;28;20485;-76
2023/11/21 04:05:09;;;;;;;46.70;19.88;;;;;;;3.28;100.00;97197.94;5011184;28;20056;-76
2023/11/21 04:07:35;;;;;;;61.53;23.85;;;;;;;3.23;100.00;97206.97;5011090;28;20113;-76
2023/11/21 04:10:01;;;;;;;49.85;18.08;;;;;;;3.24;100.00;97214.81;5011163;28;20022;-76
2023/11/21 04:12:26;;;;;;;54.47;19.08;;;;;;;3.34;100.00;97215.34;4994891;28;20030;-76
2023/11/21 04:14:52;;;;;;;47.85;17.42;;;;;;;3.31;100.00;97217.22;4994300;28;20064;-76
2023/11/21 04:17:20;;;;;;;38.65;15.48;;;;;;;3.21;100.00;97214.06;5011032;28;20022;-76
2023/11/21 04:19:46;;;;;;;35.65;15.73;;;;;;;3.27;100.00;97203.28;4994513;28;20026;-76
2023/11/21 04:22:12;;;;;;;40.20;15.27;;;;;;;3.18;100.00;97196.56;5010798;28;20468;-78
2023/11/21 04:24:38;;;;;;;32.30;13.00;;;;;;;3.16;100.00;97200.19;5010706;28;20096;-76
2023/11/21 04:27:03;;;;;;;45.08;16.27;;;;;;;3.26;100.00;97201.56;5011877;28;20096;-77
2023/11/21 04:29:30;;;;;;;33.22;14.95;;;;;;;3.23;100.00;97191.13;4978160;28;20041;-77
2023/11/21 04:31:55;;;;;;;27.88;12.10;;;;;;;3.25;100.00;97195.41;4994046;28;20033;-77
2023/11/21 04:34:21;;;;;;;32.08;11.27;;;;;;;3.33;100.00;97204.81;4977984;28;20033;-77
2023/11/21 04:36:46;;;;;;;24.88;10.57;;;;;;;3.29;100.00;97204.94;4994273;28;20478;-77
2023/11/21 04:39:12;;;;;;;33.17;11.35;;;;;;;3.26;100.00;97193.66;4994429;28;20478;-76
2023/11/21 04:41:39;;;;;;;30.70;12.32;;;;;;;3.25;100.00;97197.19;4993836;28;20030;-73
2023/11/21 04:44:06;;;;;;;30.75;12.95;;;;;;;3.21;100.00;97188.53;5011863;28;20482;-76
2023/11/21 04:46:32;;;;;;;35.08;13.88;;;;;;;3.26;100.00;97183.06;4977792;28;20030;-77
2023/11/21 04:48:58;;;;;;;41.53;16.15;;;;;;;3.33;100.00;97184.53;5011258;28;20103;-75
2023/11/21 04:51:23;;;;;;;38.97;15.57;;;;;;;3.36;100.00;97181.78;5013888;28;20108;-76
2023/11/21 04:53:49;;;;;;;35.75;11.85;;;;;;;3.42;100.00;97196.53;4977522;28;20125;-75
2023/11/21 04:56:16;;;;;;;41.92;15.27;;;;;;;3.39;100.00;97192.22;4993743;28;20127;-75
2023/11/21 04:58:41;;;;;;;50.78;17.27;;;;;;;3.47;100.00;97195.44;4993825;28;20105;-76
2023/11/21 05:01:07;;;;;;;41.47;16.98;;;;;;;3.43;100.00;97188.53;4976972;28;20064;-76
2023/11/21 05:03:33;;;;;;;44.13;18.67;;;;;;;3.39;100.00;97205.44;4993936;28;20382;-77
2023/11/21 05:05:59;;;;;;;36.85;15.80;;;;;;;3.43;100.00;97200.91;4993729;28;20172;-77
2023/11/21 05:08:26;;;;;;;49.67;17.38;;;;;;;3.47;100.00;97200.72;5011420;28;20026;-76
2023/11/21 05:10:52;;;;;;;44.38;20.45;;;;;;;3.47;100.00;97200.72;4993258;28;20049;-76
2023/11/21 05:13:18;;;;;;;54.97;21.95;;;;;;;3.44;100.00;97198.22;4993557;28;20025;-76
2023/11/21 05:15:44;;;;;;;65.85;23.25;;;;;;;3.49;100.00;97209.44;4977235;28;20029;-76
2023/11/21 05:18:10;;;;;;;66.05;22.85;;;;;;;3.55;100.00;97208.34;5011003;28;20032;-76
2023/11/21 05:20:37;;;;;;;59.08;25.02;;;;;;;3.46;100.00;97206.94;4993652;28;20022;-77
2023/11/21 05:23:03;;;;;;;59.38;26.80;;;;;;;3.36;100.00;97194.13;4993178;28;20034;-76
2023/11/21 05:25:29;;;;;;;59.90;25.48;;;;;;;3.39;100.00;97202.78;4976909;28;20421;-75
2023/11/21 05:27:54;;;;;;;57.58;24.80;;;;;;;3.33;100.00;97188.94;5008569;28;20030;-76
2023/11/21 05:30:21;;;;;;;66.20;25.90;;;;;;;3.40;100.00;97199.25;5011032;28;20036;-76
2023/11/21 05:32:47;;;;;;;45.72;22.55;;;;;;;3.41;100.00;97195.69;5017016;28;20101;-76
2023/11/21 05:35:15;;;;;;;50.78;22.52;;;;;;;3.43;100.00;97204.41;5009879;28;20113;-76
2023/11/21 05:37:42;;;;;;;47.33;20.08;;;;;;;3.40;100.00;97201.88;5009991;28;20054;-75
2023/11/21 05:40:08;;;;;;;47.20;19.10;;;;;;;3.50;100.00;97216.47;5009451;28;20168;-76
2023/11/21 05:42:34;;;;;;;37.22;18.65;;;;;;;3.55;100.00;97203.06;4993140;28;20029;-75
2023/11/21 05:45:09;;;;;;;40.25;18.90;;;;;;;3.63;100.00;97209.75;5010007;28;20034;-76
2023/11/21 05:47:36;;;;;;;40.45;19.02;;;;;;;3.60;100.00;97201.94;5010705;28;20466;-76
2023/11/21 05:50:02;;;;;;;50.40;19.67;;;;;;;3.73;100.00;97226.13;5009823;28;20120;-76
2023/11/21 05:52:28;;;;;;;49.58;23.15;;;;;;;3.78;100.00;97222.34;5010270;28;20089;-75
2023/11/21 05:54:53;;;;;;;53.65;22.38;;;;;;;3.80;100.00;97206.44;5009740;28;20034;-77
2023/11/21 05:57:19;;;;;;;51.15;21.42;;;;;;;3.91;100.00;97211.31;5010129;28;20032;-75
2023/11/21 05:59:46;;;;;;;53.65;22.20;;;;;;;3.88;100.00;97206.97;5010886;28;20057;-76
2023/11/21 06:02:11;;;;;;;51.90;20.52;;;;;;;3.97;100.00;97211.88;5010345;28;20453;-76
2023/11/21 06:04:37;;;;;;;46.20;19.10;;;;;;;3.98;100.00;97212.75;4993279;28;20149;-77
2023/11/21 06:07:02;;;;;;;38.83;17.45;;;;;;;4.01;100.00;97204.69;5009130;28;20029;-75
2023/11/21 06:09:28;;;;;;;58.42;20.63;;;;;;;4.22;100.00;97217.00;4993152;28;20033;-77
2023/11/21 06:11:54;;;;;;;62.70;25.15;;;;;;;4.26;100.00;97203.59;5009522;28;20025;-75
2023/11/21 06:14:19;;;;;;;76.70;28.55;;;;;;;4.35;100.00;97205.00;5012735;28;20021;-75
2023/11/21 06:16:45;;;;;;;48.17;20.77;;;;;;;4.55;100.00;97209.44;4996963;28;20061;-76
2023/11/21 06:19:11;;;;;;;58.05;23.08;;;;;;;4.61;100.00;97212.69;4997384;28;20049;-77
2023/11/21 06:21:37;;;;;;;74.63;25.88;;;;;;;4.71;100.00;97199.88;5013546;28;20113;-78
2023/11/21 06:24:02;;;;;;;80.63;27.65;;;;;;;4.75;100.00;97197.03;5014376;28;20538;-76
2023/11/21 06:26:28;;;;;;;43.40;20.30;;;;;;;4.93;100.00;97212.09;5013392;28;20054;-79
2023/11/21 06:28:54;;;;;;;45.42;19.88;;;;;;;5.27;100.00;97226.44;5013647;28;20104;-76
2023/11/21 06:31:19;;;;;;;36.97;19.48;;;;;;;6.36;100.00;97215.84;5014294;28;20112;-75
2023/11/21 06:33:45;;;;;;;58.58;22.40;;;;;;;7.42;100.00;97204.88;5015705;28;20033;-76
2023/11/21 06:36:13;;;;;;;53.42;22.00;;;;;;;7.82;100.00;97192.84;5013696;28;20033;-75
2023/11/21 06:38:39;;;;;;;54.50;23.20;;;;;;;7.80;100.00;97190.28;5013213;28;20048;-77
2023/11/21 06:41:05;;;;;;;48.90;21.90;;;;;;;7.58;100.00;97192.44;5012627;28;20408;-76
2023/11/21 06:43:31;;;;;;;56.55;22.30;;;;;;;7.74;100.00;97195.97;5012797;28;20559;-76
2023/11/21 06:45:57;;;;;;;44.42;21.42;;;;;;;7.94;100.00;97179.69;4996465;28;20026;-77
2023/11/21 06:48:22;;;;;;;42.88;21.48;;;;;;;8.76;100.00;97188.19;5012394;28;20095;-78
2023/11/21 06:50:48;;;;;;;43.67;19.85;;;;;;;10.13;100.00;97181.22;5012782;28;20030;-77
2023/11/21 06:53:14;;;;;;;71.03;28.40;;;;;;;11.07;100.00;97149.81;5012427;28;20025;-77
2023/11/21 06:55:39;;;;;;;75.63;32.17;;;;;;;12.06;100.00;97149.69;5013816;28;20025;-75
2023/11/21 06:58:05;;;;;;;45.63;18.02;;;;;;;12.58;100.00;97141.25;5012257;28;20022;-76
2023/11/21 07:00:31;;;;;;;44.65;18.33;;;;;;;12.83;99.55;97149.13;4996254;28;20504;-75
2023/11/21 07:02:56;;;;;;;35.92;18.38;;;;;;;12.82;96.27;97141.22;5012257;28;20095;-78
2023/11/21 07:05:22;;;;;;;49.15;21.38;;;;;;;13.12;93.08;97146.91;5011975;28;20515;-76
2023/11/21 07:07:48;;;;;;;53.78;24.90;;;;;;;13.04;94.10;97138.59;5012094;28;20033;-76
2023/11/21 07:10:14;;;;;;;37.00;19.42;;;;;;;13.14;92.72;97136.03;5011970;28;20077;-75
2023/11/21 07:12:40;;;;;;;53.25;25.20;;;;;;;12.54;96.92;97144.31;5012428;28;20119;-77
2023/11/21 07:15:09;;;;;;;84.60;34.90;;;;;;;12.57;99.05;97144.06;5012659;28;20021;-76
2023/11/21 07:17:35;;;;;;;62.75;26.55;;;;;;;12.72;99.48;97145.59;5012398;28;20164;-77
2023/11/21 07:20:01;;;;;;;46.10;20.63;;;;;;;12.64;97.95;97146.19;4996063;28;20033;-77
2023/11/21 07:22:27;;;;;;;32.05;15.23;;;;;;;13.01;93.93;97144.19;4995783;28;20168;-75
2023/11/21 07:24:53;;;;;;;44.60;16.35;;;;;;;13.07;94.44;97142.84;5012003;28;20119;-78
2023/11/21 07:27:18;;;;;;;34.22;16.08;;;;;;;13.49;91.32;97134.97;5012412;28;20446;-77
2023/11/21 07:29:44;;;;;;;38.50;17.75;;;;;;;14.08;86.33;97145.38;5012785;28;20037;-77
2023/11/21 07:32:10;;;;;;;52.03;24.02;;;;;;;14.26;83.61;97135.78;4996388;28;20121;-76
2023/11/21 07:34:36;;;;;;;61.85;30.02;;;;;;;14.42;82.19;97127.31;4995694;28;20466;-76
2023/11/21 07:37:02;;;;;;;57.65;29.88;;;;;;;14.51;80.00;97135.47;5011999;28;20038;-76
2023/11/21 07:39:28;;;;;;;84.05;35.67;;;;;;;14.51;79.27;97124.72;4995590;28;20464;-76
2023/11/21 07:41:54;;;;;;;88.65;38.47;;;;;;;14.83;80.40;97119.25;5011922;28;20029;-77
2023/11/21 07:44:20;;;;;;;110.90;45.55;;;;;;;14.85;76.94;97116.44;5011702;28;20124;-76
2023/11/21 07:46:46;;;;;;;85.20;39.03;;;;;;;15.47;74.83;97117.22;4995296;28;20029;-76
2023/11/21 07:49:15;;;;;;;63.17;32.38;;;;;;;15.84;69.96;97113.97;5011609;28;20045;-74
2023/11/21 07:51:42;;;;;;;40.53;23.58;;;;;;;15.81;67.83;97112.38;4995640;28;20485;-76
2023/11/21 07:54:07;;;;;;;42.58;23.23;;;;;;;15.48;70.21;97116.25;5011601;28;20509;-76
2023/11/21 07:56:33;;;;;;;84.32;39.33;;;;;;;14.52;75.12;97114.78;5011217;28;20037;-76
2023/11/21 07:58:58;;;;;;;57.70;26.20;;;;;;;14.76;77.82;97128.00;5011517;28;20049;-77
2023/11/21 08:01:24;;;;;;;38.90;18.88;;;;;;;13.82;83.22;97126.00;5011075;28;20033;-76
2023/11/21 08:03:52;;;;;;;37.28;19.20;;;;;;;13.71;84.83;97117.09;5011228;28;20124;-78
2023/11/21 08:06:17;;;;;;;30.55;15.75;;;;;;;12.88;93.20;97132.69;4995068;28;20092;-76
2023/11/21 08:08:43;;;;;;;28.75;17.55;;;;;;;12.55;95.50;97125.41;5012497;28;20386;-76
2023/11/21 08:11:10;;;;;;;34.15;16.75;;;;;;;12.08;100.00;97142.41;5011292;28;20032;-75
2023/11/21 08:13:36;;;;;;;32.80;17.67;;;;;;;12.18;100.00;97138.06;5012350;28;20092;-76
2023/11/21 08:16:03;;;;;;;40.75;18.05;;;;;;;12.48;100.00;97130.41;5010930;28;20025;-78
2023/11/21 08:18:29;;;;;;;39.35;17.95;;;;;;;13.53;96.81;97130.19;5010640;28;20112;-77
2023/11/21 08:20:55;;;;;;;38.78;19.63;;;;;;;14.57;87.70;97112.56;5010981;28;20037;-76
2023/11/21 08:23:25;;;;;;;32.15;17.27;;;;;;;14.84;81.43;97095.88;5010753;28;20033;-76
2023/11/21 08:25:51;;;;;;;35.63;17.45;;;;;;;15.56;75.14;97085.94;4987272;28;20440;-76
2023/11/21 08:28:17;;;;;;;38.22;18.52;;;;;;;16.62;68.88;97093.19;4978304;28;20101;-77
2023/11/21 08:30:42;;;;;;;35.85;17.98;;;;;;;17.33;63.37;97083.63;4994124;28;20474;-76
2023/11/21 08:33:08;;;;;;;34.90;17.42;;;;;;;17.90;59.45;97075.44;4994253;28;20026;-76
2023/11/21 08:35:34;;;;;;;34.25;17.17;;;;;;;18.68;56.40;97062.00;4993800;28;20493;-77
2023/11/21 08:38:00;;;;;;;33.08;17.05;;;;;;;18.53;56.06;97069.00;4977270;28;20030;-76
2023/11/21 08:40:26;;;;;;;48.42;19.17;;;;;;;18.86;54.71;97070.09;4993865;28;20515;-77
2023/11/21 08:42:54;;;;;;;35.03;15.13;;;;;;;18.84;53.40;97048.59;4993996;28;20102;-76
2023/11/21 08:45:21;;;;;;;22.98;12.23;;;;;;;19.21;51.86;97053.75;4993905;28;20034;-77
2023/11/21 08:47:47;;;;;;;13.25;6.68;;;;;;;19.48;49.70;97052.72;4993936;28;20022;-76
2023/11/21 08:50:13;;;;;;;20.08;9.40;;;;;;;19.77;48.27;97042.34;4993525;28;20124;-76
2023/11/21 08:52:40;;;;;;;23.52;10.10;;;;;;;20.21;47.82;97047.56;4993791;28;20095;-77
2023/11/21 08:55:09;;;;;;;17.65;10.30;;;;;;;20.33;47.74;97040.81;4977872;28;20033;-76
2023/11/21 08:57:43;;;;;;;29.48;13.60;;;;;;;19.97;48.18;97041.03;4977985;28;20030;-76
2023/11/21 09:00:12;;;;;;;27.20;14.52;;;;;;;19.74;48.08;97045.41;4993881;28;20032;-76
2023/11/21 09:02:38;;;;;;;25.10;13.82;;;;;;;19.57;49.00;97035.47;5011203;28;20029;-76
2023/11/21 09:05:05;;;;;;;27.33;14.85;;;;;;;19.48;49.15;97036.44;4993820;28;20481;-77
2023/11/21 09:07:31;;;;;;;34.60;16.95;;;;;;;19.55;49.65;97021.22;4977677;28;20079;-76
2023/11/21 09:09:56;;;;;;;29.77;16.80;;;;;;;19.02;51.00;97024.13;4993632;28;20101;-76
2023/11/21 09:12:22;;;;;;;37.65;16.85;;;;;;;18.95;51.95;97034.75;5011288;28;20030;-75
2023/11/21 09:14:47;;;;;;;28.33;14.57;;;;;;;19.26;51.43;97018.00;4976985;28;20030;-76
2023/11/21 09:17:14;;;;;;;34.97;15.70;;;;;;;19.33;51.22;97008.19;4977427;28;20037;-77
2023/11/21 09:19:40;;;;;;;22.58;13.10;;;;;;;19.79;50.54;97013.16;4993769;28;20105;-77
2023/11/21 09:22:06;;;;;;;31.40;12.13;;;;;;;20.13;49.85;97001.38;4977368;28;20018;-75
2023/11/21 09:24:32;;;;;;;22.58;11.93;;;;;;;20.24;49.61;96999.16;4993838;28;20026;-76
2023/11/21 09:26:59;;;;;;;27.83;13.68;;;;;;;20.31;48.82;96973.06;5000847;28;20038;-76
2023/11/21 09:29:26;;;;;;;36.83;13.70;;;;;;;20.23;49.86;96986.63;4993466;28;20034;-76
2023/11/21 09:31:51;;;;;;;22.92;14.07;;;;;;;20.38;48.78;96978.66;4993199;28;20041;-76
2023/11/21 09:34:18;;;;;;;30.60;15.32;;;;;;;20.46;48.58;96975.94;5009583;28;20034;-76
2023/11/21 09:36:47;;;;;;;35.85;17.50;;;;;;;20.58;48.08;96971.84;5009560;28;20018;-76
2023/11/21 09:39:17;;;;;;;43.20;19.65;;;;;;;19.76;49.75;96974.66;4993508;28;20022;-77
2023/11/21 09:41:44;;;;;;;30.92;18.08;;;;;;;19.51;50.76;96973.72;5009709;28;20026;-76
2023/11/21 09:44:13;;;;;;;34.53;16.00;;;;;;;19.65;50.85;96954.13;5011045;28;20101;-76
2023/11/21 09:46:41;;;;;;;52.08;21.10;;;;;;;18.60;53.92;96956.28;5009586;28;20072;-77
2023/11/21 09:49:12;;;;;;;31.85;13.25;;;;;;;18.41;55.10;96953.75;5013315;28;20033;-76
2023/11/21 09:51:40;;;;;;;25.90;11.15;;;;;;;18.14;56.69;96945.75;4997926;28;20030;-75
2023/11/21 09:54:07;;;;;;;16.45;7.22;;;;;;;18.61;55.54;96927.34;4997241;28;20088;-76
2023/11/21 09:56:33;;;;;;;14.80;6.85;;;;;;;17.86;58.23;96935.03;4997006;28;21097;-77
2023/11/21 09:59:04;;;;;;;10.70;5.03;;;;;;;18.63;55.99;96909.91;5014698;28;20030;-76
2023/11/21 10:01:30;;;;;;;7.97;4.85;;;;;;;18.83;55.51;96915.94;5013757;28;20033;-76
2023/11/21 10:03:57;;;;;;;10.10;5.15;;;;;;;18.81;56.80;96913.41;4997271;28;20042;-77
2023/11/21 10:06:25;;;;;;;12.93;5.03;;;;;;;19.12;56.73;96902.00;4997107;28;20520;-76
2023/11/21 10:08:51;;;;;;;13.38;6.70;;;;;;;19.75;54.06;96891.53;5013760;28;20473;-76
2023/11/21 10:11:17;;;;;;;17.20;5.15;;;;;;;20.07;51.95;96893.41;5013709;28;20088;-77
2023/11/21 10:13:45;;;;;;;11.18;5.28;;;;;;;20.89;49.83;96888.53;4997050;28;20029;-76
2023/11/21 10:16:16;;;;;;;12.43;5.43;;;;;;;21.55;48.12;96877.22;4996740;28;20030;-74
2023/11/21 10:18:42;;;;;;;12.55;4.50;;;;;;;21.66;47.02;96862.34;5013233;28;20378;-76
2023/11/21 10:21:09;;;;;;;10.32;5.00;;;;;;;21.99;45.84;96858.41;4997088;28;20029;-76
2023/11/21 10:23:34;;;;;;;9.68;4.95;;;;;;;22.26;44.53;96856.97;5013147;28;20026;-76
2023/11/21 10:26:01;;;;;;;8.95;3.58;;;;;;;22.14;44.20;96828.47;5012834;28;20091;-75
2023/11/21 10:28:26;;;;;;;8.07;3.13;;;;;;;21.90;44.46;96834.13;4980299;28;20036;-77
2023/11/21 10:30:52;;;;;;;7.97;3.60;;;;;;;21.79;44.83;96824.47;4980726;28;20026;-76
2023/11/21 10:33:27;;;;;;;8.60;3.80;;;;;;;21.39;45.44;96835.66;4980325;28;20026;-77
2023/11/21 10:35:54;;;;;;;6.47;4.10;;;;;;;20.96;46.50;96832.44;4990754;28;20064;-76
2023/11/21 10:38:23;;;;;;;8.30;4.60;;;;;;;20.86;45.79;96830.94;4979973;28;20038;-75
2023/11/21 10:40:49;;;;;;;7.65;4.50;;;;;;;21.10;45.76;96811.84;4980319;28;20468;-77
2023/11/21 10:43:15;;;;;;;7.85;4.20;;;;;;;21.48;44.95;96802.75;4996293;28;20532;-77
2023/11/21 10:45:42;;;;;;;7.80;3.60;;;;;;;22.04;42.93;96787.88;4979882;28;20037;-76
2023/11/21 10:48:08;;;;;;;8.35;4.55;;;;;;;22.91;42.52;96783.50;4980170;28;20034;-76
2023/11/21 10:50:35;;;;;;;4.75;2.80;;;;;;;23.43;40.28;96771.56;4995828;28;20350;-76
2023/11/21 10:53:03;;;;;;;3.20;1.95;;;;;;;24.03;38.15;96766.44;4996120;28;20022;-76
2023/11/21 10:55:31;;;;;;;8.73;4.43;;;;;;;23.74;40.35;96769.34;4979769;28;20118;-77
2023/11/21 10:57:59;;;;;;;5.07;3.20;;;;;;;23.22;39.47;96759.53;4996465;28;20457;-77
2023/11/21 11:00:26;;;;;;;6.03;3.78;;;;;;;23.68;39.69;96761.94;4995142;28;20508;-75
2023/11/21 11:02:56;;;;;;;6.72;3.03;;;;;;;24.05;39.24;96750.72;4973213;28;20026;-76
2023/11/21 11:05:26;;;;;;;7.78;2.90;;;;;;;23.83;38.70;96749.06;4995333;28;20040;-75
2023/11/21 11:08:00;;;;;;;2.80;1.80;;;;;;;23.11;37.71;96740.94;4979857;28;20101;-76
2023/11/21 11:10:29;;;;;;;4.55;1.80;;;;;;;22.03;38.33;96731.69;4980227;28;20092;-77
2023/11/21 11:12:55;;;;;;;1.67;1.13;;;;;;;21.17;38.94;96722.19;4989869;28;20030;-78
2023/11/21 11:15:21;;;;;;;6.28;1.52;;;;;;;20.82;40.37;96743.47;4979757;28;20566;-77